Time;durP1;ratioP1;P1;durP2;ratioP2;P2;SDS_P1;SDS_P2;PMS_P1;PMS_P2;Temp;Humidity;BMP_temperature;BMP_pressure;BME280_temperature;BME280_humidity;BME280_pressure;Samples;Min_cycle;Max_cycle;Signal;HPM_P1;HPM_P2
2021/12/03 00:01:06;;;;;;;3.80;2.30;;;;;;;0.52;100.00;98165.44;5026578;28;20030;-73
2021/12/03 00:03:31;;;;;;;5.97;2.28;;;;;;;0.62;99.73;98192.78;4994457;28;20037;-73
2021/12/03 00:05:57;;;;;;;5.25;2.45;;;;;;;0.62;99.18;98187.47;5016358;28;20030;-73
2021/12/03 00:08:25;;;;;;;5.68;2.25;;;;;;;0.72;98.02;98203.34;5013721;28;20029;-72
2021/12/03 00:10:55;;;;;;;3.75;2.28;;;;;;;0.70;98.24;98188.50;5011708;28;20475;-72
2021/12/03 00:13:21;;;;;;;5.80;2.10;;;;;;;0.70;97.18;98183.19;5032228;28;20429;-72
2021/12/03 00:15:47;;;;;;;4.72;2.15;;;;;;;0.84;97.11;98210.09;5031918;28;20029;-72
2021/12/03 00:18:13;;;;;;;4.97;2.47;;;;;;;0.62;97.29;98187.47;5029270;28;20495;-72
2021/12/03 00:20:39;;;;;;;6.55;2.60;;;;;;;0.78;97.11;98228.50;4995321;28;20026;-73
2021/12/03 00:23:05;;;;;;;6.20;2.40;;;;;;;0.68;96.69;98219.78;5014321;28;20505;-73
2021/12/03 00:25:31;;;;;;;5.68;2.47;;;;;;;0.81;96.96;98237.03;5029922;28;20044;-72
2021/12/03 00:27:57;;;;;;;7.20;2.60;;;;;;;0.53;96.38;98204.38;5031655;28;20030;-73
2021/12/03 00:30:22;;;;;;;4.63;2.28;;;;;;;0.78;97.65;98247.97;5031371;28;20064;-72
2021/12/03 00:32:48;;;;;;;5.55;2.65;;;;;;;0.72;96.96;98240.63;5031595;28;20025;-72
2021/12/03 00:35:17;;;;;;;8.60;2.83;;;;;;;0.65;96.82;98224.44;5026888;28;20041;-73
2021/12/03 00:37:43;;;;;;;4.25;2.55;;;;;;;0.75;96.13;98229.66;5010906;28;20033;-73
2021/12/03 00:40:11;;;;;;;5.50;2.55;;;;;;;0.88;95.82;98251.38;5012700;28;20036;-72
2021/12/03 00:42:38;;;;;;;5.60;2.70;;;;;;;0.80;95.48;98243.34;5000409;28;20598;-72
2021/12/03 00:45:06;;;;;;;3.65;2.55;;;;;;;0.93;94.93;98261.56;5030108;28;20046;-72
2021/12/03 00:47:32;;;;;;;5.03;2.47;;;;;;;0.83;94.89;98247.50;5012234;28;20498;-72
2021/12/03 00:49:57;;;;;;;5.65;2.50;;;;;;;0.95;94.90;98272.91;5034456;28;20063;-72
2021/12/03 00:52:23;;;;;;;5.88;2.17;;;;;;;0.92;95.70;98257.25;5035012;28;20083;-72
2021/12/03 00:54:49;;;;;;;3.00;2.22;;;;;;;0.90;94.85;98261.88;5017535;28;20505;-72
2021/12/03 00:57:15;;;;;;;4.55;2.83;;;;;;;0.97;93.48;98272.75;5034305;28;20147;-73
2021/12/03 00:59:40;;;;;;;6.65;2.78;;;;;;;1.01;93.58;98276.78;5017482;28;20017;-73
2021/12/03 01:02:06;;;;;;;6.50;2.70;;;;;;;1.09;92.83;98285.66;5034901;28;20091;-73
2021/12/03 01:04:31;;;;;;;5.80;2.58;;;;;;;0.76;93.24;98236.66;5035416;28;20507;-73
2021/12/03 01:06:57;;;;;;;4.80;2.80;;;;;;;0.75;93.63;98239.47;5016980;28;20376;-73
2021/12/03 01:09:22;;;;;;;5.95;2.03;;;;;;;1.06;93.12;98291.31;5035175;28;20205;-73
2021/12/03 01:11:49;;;;;;;4.75;2.63;;;;;;;0.91;94.52;98281.34;5034495;28;20038;-73
2021/12/03 01:14:15;;;;;;;4.63;2.47;;;;;;;0.85;93.83;98288.16;5034786;28;20013;-73
2021/12/03 01:16:40;;;;;;;4.90;2.67;;;;;;;0.78;92.83;98281.75;5016530;28;20025;-73
2021/12/03 01:19:06;;;;;;;7.40;2.65;;;;;;;0.85;92.88;98304.94;5017372;28;20018;-73
2021/12/03 01:21:31;;;;;;;6.53;2.42;;;;;;;0.72;93.79;98285.88;5027392;28;20057;-73
2021/12/03 01:23:57;;;;;;;9.25;2.65;;;;;;;0.71;94.95;98281.56;5021045;28;20033;-73
2021/12/03 01:26:23;;;;;;;5.07;2.80;;;;;;;0.75;93.59;98301.53;5021324;28;20025;-73
2021/12/03 01:28:49;;;;;;;8.15;2.53;;;;;;;0.78;93.91;98319.88;5020935;28;20382;-73
2021/12/03 01:31:16;;;;;;;5.07;2.97;;;;;;;0.82;93.97;98320.41;5019066;28;20055;-73
2021/12/03 01:33:44;;;;;;;5.68;2.90;;;;;;;0.72;93.85;98304.50;5019060;28;20018;-73
2021/12/03 01:36:09;;;;;;;9.38;3.00;;;;;;;0.78;94.89;98322.53;5035383;28;20394;-73
2021/12/03 01:38:34;;;;;;;6.80;3.15;;;;;;;0.84;94.74;98329.09;5038753;28;20030;-72
2021/12/03 01:41:00;;;;;;;6.47;3.22;;;;;;;0.63;94.01;98300.94;5017132;28;20116;-73
2021/12/03 01:43:26;;;;;;;5.15;2.63;;;;;;;0.73;94.17;98323.97;5034529;28;20125;-73
2021/12/03 01:46:00;;;;;;;7.10;2.80;;;;;;;0.75;93.96;98330.81;5012486;28;20029;-73
2021/12/03 01:48:26;;;;;;;5.97;2.97;;;;;;;0.74;93.90;98336.31;5034348;28;20072;-73
2021/12/03 01:50:52;;;;;;;6.18;3.17;;;;;;;0.76;94.03;98329.00;5034249;28;20055;-73
2021/12/03 01:53:22;;;;;;;5.60;2.60;;;;;;;0.65;93.04;98314.94;5016781;28;20021;-72
2021/12/03 01:55:50;;;;;;;7.22;3.45;;;;;;;0.64;93.63;98318.59;5034227;28;20446;-72
2021/12/03 01:58:16;;;;;;;6.07;2.92;;;;;;;0.73;94.21;98339.97;5015707;28;20017;-72
2021/12/03 02:00:48;;;;;;;7.72;2.95;;;;;;;0.62;95.04;98315.22;5031516;28;20025;-72
2021/12/03 02:03:15;;;;;;;6.30;3.08;;;;;;;0.64;94.72;98323.06;5013681;28;20021;-73
2021/12/03 02:05:42;;;;;;;7.60;3.28;;;;;;;0.76;95.07;98343.16;5034509;28;20044;-72
2021/12/03 02:08:07;;;;;;;6.55;2.90;;;;;;;0.74;95.40;98344.31;5033890;28;20103;-73
2021/12/03 02:10:34;;;;;;;4.90;2.90;;;;;;;0.67;95.12;98333.41;5035065;28;20065;-73
2021/12/03 02:13:00;;;;;;;6.32;2.97;;;;;;;0.72;95.63;98347.13;5035864;28;20039;-73
2021/12/03 02:15:26;;;;;;;7.75;3.03;;;;;;;0.71;95.92;98352.56;5029851;28;20093;-72
2021/12/03 02:17:51;;;;;;;8.30;3.15;;;;;;;0.50;96.08;98343.09;5039143;28;20017;-73
2021/12/03 02:20:17;;;;;;;6.70;3.30;;;;;;;0.51;95.93;98350.06;5039866;28;20025;-73
2021/12/03 02:22:43;;;;;;;5.53;2.90;;;;;;;0.44;96.65;98344.50;5023476;28;20126;-73
2021/12/03 02:25:14;;;;;;;7.30;3.42;;;;;;;0.49;96.29;98353.88;5020694;28;20081;-72
2021/12/03 02:27:40;;;;;;;6.32;3.30;;;;;;;0.39;96.05;98349.47;5026626;28;20466;-73
2021/12/03 02:30:06;;;;;;;5.90;3.40;;;;;;;0.49;95.78;98360.03;5038522;28;20021;-72
2021/12/03 02:32:32;;;;;;;7.20;3.60;;;;;;;0.46;95.68;98351.50;5037690;28;20100;-73
2021/12/03 02:34:57;;;;;;;5.97;3.33;;;;;;;0.56;95.47;98366.44;5035399;28;20463;-73
2021/12/03 02:37:41;;;;;;;6.38;3.83;;;;;;;0.33;95.64;98338.56;5015273;28;20029;-73
2021/12/03 02:40:08;;;;;;;7.28;3.70;;;;;;;0.46;96.44;98367.47;5013311;28;20034;-72
2021/12/03 02:42:33;;;;;;;6.53;3.58;;;;;;;0.42;95.44;98356.31;5012905;28;20026;-74
2021/12/03 02:44:59;;;;;;;5.13;3.33;;;;;;;0.46;95.32;98363.00;5003948;28;20037;-73
2021/12/03 02:47:24;;;;;;;7.65;3.72;;;;;;;0.45;95.68;98366.66;5021470;28;20431;-72
2021/12/03 02:49:49;;;;;;;6.47;3.38;;;;;;;0.51;95.51;98384.66;5007920;28;20050;-72
2021/12/03 02:52:15;;;;;;;10.68;3.70;;;;;;;0.47;96.94;98390.44;5014253;28;20037;-72
2021/12/03 02:54:40;;;;;;;7.60;3.88;;;;;;;0.37;97.63;98371.88;5014702;28;20026;-73
2021/12/03 02:57:06;;;;;;;6.85;3.75;;;;;;;0.42;97.71;98388.25;5015066;28;20033;-73
2021/12/03 02:59:32;;;;;;;5.88;3.67;;;;;;;0.38;97.69;98382.34;5032876;28;20215;-72
2021/12/03 03:01:58;;;;;;;6.43;3.90;;;;;;;0.22;97.18;98367.03;5032446;28;20052;-72
2021/12/03 03:04:25;;;;;;;7.78;3.83;;;;;;;0.32;97.59;98388.28;5032644;28;20025;-73
2021/12/03 03:06:50;;;;;;;9.90;3.90;;;;;;;0.14;98.07;98368.78;5015364;28;20037;-72
2021/12/03 03:09:15;;;;;;;9.13;3.92;;;;;;;0.09;98.86;98374.53;5024426;28;20092;-72
2021/12/03 03:11:41;;;;;;;9.27;4.32;;;;;;;0.11;100.00;98385.88;5019569;28;20025;-72
2021/12/03 03:14:06;;;;;;;9.45;4.53;;;;;;;0.20;100.00;98397.44;5032678;28;20103;-73
2021/12/03 03:16:32;;;;;;;7.97;4.40;;;;;;;0.11;100.00;98399.19;5011283;28;20049;-73
2021/12/03 03:18:57;;;;;;;11.60;4.60;;;;;;;-0.08;100.00;98377.97;4995267;28;20057;-72
2021/12/03 03:21:23;;;;;;;8.27;4.28;;;;;;;-0.16;100.00;98368.06;5003159;28;20033;-73
2021/12/03 03:23:49;;;;;;;9.48;4.22;;;;;;;-0.09;100.00;98393.09;5013201;28;20674;-72
2021/12/03 03:26:15;;;;;;;7.57;4.30;;;;;;;-0.14;100.00;98389.19;5032427;28;20030;-72
2021/12/03 03:28:43;;;;;;;7.75;4.20;;;;;;;-0.12;100.00;98396.03;5011383;28;20021;-72
2021/12/03 03:31:08;;;;;;;8.70;4.28;;;;;;;-0.16;100.00;98402.63;5015658;28;20383;-72
2021/12/03 03:33:34;;;;;;;9.93;4.45;;;;;;;-0.05;100.00;98393.66;5032282;28;20021;-72
2021/12/03 03:35:59;;;;;;;11.70;4.65;;;;;;;-0.28;100.00;98364.75;5014372;28;20399;-72
2021/12/03 03:38:25;;;;;;;12.30;4.82;;;;;;;-0.10;100.00;98395.91;5032366;28;20025;-72
2021/12/03 03:40:51;;;;;;;10.48;4.45;;;;;;;-0.10;100.00;98409.22;5017672;28;20467;-72
2021/12/03 03:43:17;;;;;;;9.75;4.88;;;;;;;-0.18;100.00;98380.69;5014187;28;20029;-72
2021/12/03 03:45:43;;;;;;;11.10;5.07;;;;;;;-0.06;100.00;98399.94;5014144;28;20044;-73
2021/12/03 03:48:09;;;;;;;10.23;4.40;;;;;;;0.07;100.00;98418.22;5032196;28;20025;-72
2021/12/03 03:50:35;;;;;;;8.38;4.80;;;;;;;-0.18;100.00;98396.63;5026162;28;20056;-72
2021/12/03 03:53:00;;;;;;;10.70;5.03;;;;;;;-0.06;100.00;98413.22;5026516;28;20391;-73
2021/12/03 03:55:27;;;;;;;11.48;4.78;;;;;;;0.09;100.00;98435.72;5000702;28;20468;-73
2021/12/03 03:57:55;;;;;;;9.05;4.50;;;;;;;-0.08;100.00;98405.41;5013002;28;20543;-73
2021/12/03 04:00:26;;;;;;;9.27;3.85;;;;;;;0.02;100.00;98421.31;5012560;28;20041;-72
2021/12/03 04:02:51;;;;;;;13.55;5.30;;;;;;;0.05;100.00;98430.81;5026521;28;20108;-72
2021/12/03 04:05:17;;;;;;;8.82;4.80;;;;;;;0.12;100.00;98445.22;5028549;28;20029;-73
2021/12/03 04:07:43;;;;;;;10.55;5.15;;;;;;;0.04;100.00;98442.47;5032005;28;20390;-72
2021/12/03 04:10:09;;;;;;;10.50;4.75;;;;;;;0.11;100.00;98454.19;5032328;28;20108;-72
2021/12/03 04:12:36;;;;;;;9.93;5.03;;;;;;;-0.09;100.00;98438.28;5032658;28;20108;-73
2021/12/03 04:15:03;;;;;;;11.15;4.40;;;;;;;0.07;99.79;98464.28;5031267;28;20029;-72
2021/12/03 04:17:29;;;;;;;12.77;5.00;;;;;;;-0.23;100.00;98430.78;5014320;28;20029;-72
2021/12/03 04:19:54;;;;;;;10.65;5.47;;;;;;;0.00;99.81;98484.47;5030105;28;20475;-72
2021/12/03 04:22:23;;;;;;;11.25;4.80;;;;;;;-0.02;99.75;98467.81;5031993;28;20475;-72
2021/12/03 04:24:49;;;;;;;;;;;;;;;-0.05;99.79;98476.09;5035256;28;20022;-73
2021/12/03 04:27:15;;;;;;;10.65;4.93;;;;;;;-0.14;99.66;98471.63;5035997;28;20007;-72
2021/12/03 04:29:40;;;;;;;10.57;5.35;;;;;;;-0.28;100.00;98476.41;5035559;28;20463;-73
2021/12/03 04:32:07;;;;;;;12.90;5.15;;;;;;;-0.44;100.00;98460.22;5029765;28;20026;-73
2021/12/03 04:34:33;;;;;;;12.10;5.43;;;;;;;-0.44;100.00;98478.81;5017686;28;20498;-72
2021/12/03 04:36:58;;;;;;;9.13;5.07;;;;;;;-0.50;100.00;98472.25;5035826;28;20037;-73
2021/12/03 04:39:23;;;;;;;12.68;4.97;;;;;;;-0.57;100.00;98454.34;5035689;28;20022;-72
2021/12/03 04:41:49;;;;;;;10.00;5.13;;;;;;;-0.35;100.00;98488.59;5054130;23;20096;-71
2021/12/03 04:44:14;;;;;;;11.45;4.97;;;;;;;-0.33;100.00;98483.97;5020512;28;20032;-73
2021/12/03 04:46:39;;;;;;;10.32;5.30;;;;;;;-0.33;100.00;98489.28;5024520;28;20037;-74
2021/12/03 04:49:05;;;;;;;9.60;4.93;;;;;;;-0.29;100.00;98484.50;5029127;28;20029;-73
2021/12/03 04:51:30;;;;;;;13.55;5.05;;;;;;;-0.08;100.00;98494.97;5019323;28;20051;-74
2021/12/03 04:53:55;;;;;;;11.20;4.85;;;;;;;-0.19;99.66;98481.84;5012091;28;20017;-72
2021/12/03 04:56:21;;;;;;;10.98;5.68;;;;;;;-0.10;98.32;98491.63;5016745;28;20503;-76
2021/12/03 04:58:47;;;;;;;9.35;5.10;;;;;;;0.02;97.96;98497.59;5024447;28;20467;-74
2021/12/03 05:01:12;;;;;;;9.50;4.55;;;;;;;0.08;96.83;98511.19;5034043;28;20052;-71
2021/12/03 05:03:37;;;;;;;7.97;4.70;;;;;;;0.10;96.63;98506.53;5023927;28;20037;-73
2021/12/03 05:06:07;;;;;;;13.20;4.45;;;;;;;0.04;96.98;98493.00;5029336;28;20029;-72
2021/12/03 05:08:33;;;;;;;8.35;4.53;;;;;;;0.00;97.50;98508.41;5032692;28;20438;-73
2021/12/03 05:10:59;;;;;;;10.18;4.72;;;;;;;-0.05;97.05;98492.03;5026275;28;20060;-74
2021/12/03 05:13:33;;;;;;;8.93;4.10;;;;;;;0.00;96.77;98516.38;5013028;28;20017;-77
2021/12/03 05:15:59;;;;;;;9.48;4.53;;;;;;;-0.04;96.47;98514.97;5019101;28;20030;-79
2021/12/03 05:18:27;;;;;;;9.38;4.85;;;;;;;-0.13;96.99;98505.19;5034561;28;20036;-74
2021/12/03 05:20:54;;;;;;;10.57;4.83;;;;;;;-0.20;97.47;98512.09;5015232;28;20164;-74
2021/12/03 05:23:20;;;;;;;10.85;4.93;;;;;;;-0.27;97.40;98517.13;5015790;28;20026;-78
2021/12/03 05:25:47;;;;;;;13.10;5.45;;;;;;;-0.19;97.26;98524.38;5021240;28;20033;-80
2021/12/03 05:28:14;;;;;;;14.20;4.43;;;;;;;-0.35;97.23;98511.66;5008769;28;20022;-79
2021/12/03 05:30:39;;;;;;;7.70;4.50;;;;;;;-0.26;97.16;98526.78;5017426;28;20026;-79
2021/12/03 05:33:05;;;;;;;9.15;4.43;;;;;;;-0.18;96.31;98544.66;5013841;28;20394;-76
2021/12/03 05:35:31;;;;;;;11.82;5.10;;;;;;;-0.33;96.75;98505.22;5023670;28;20475;-76
2021/12/03 05:37:57;;;;;;;9.05;4.60;;;;;;;-0.23;96.70;98521.19;5022699;28;20029;-78
2021/12/03 05:40:22;;;;;;;10.27;4.82;;;;;;;-0.17;96.30;98531.22;5036753;28;20053;-81
2021/12/03 05:42:48;;;;;;;8.85;4.43;;;;;;;-0.43;96.00;98477.00;5027061;28;20068;-80
2021/12/03 05:45:19;;;;;;;9.73;4.68;;;;;;;-0.16;95.89;98537.38;5017648;28;20111;-81
2021/12/03 05:47:45;;;;;;;10.73;4.65;;;;;;;-0.18;96.04;98528.69;5018956;28;20075;-77
2021/12/03 05:50:13;;;;;;;8.93;4.43;;;;;;;-0.32;95.07;98511.38;5019019;28;20582;-77
2021/12/03 05:52:38;;;;;;;10.95;4.80;;;;;;;-0.08;95.76;98543.69;5023618;28;20108;-77
2021/12/03 05:55:05;;;;;;;9.02;4.13;;;;;;;-0.09;94.55;98541.16;5046254;28;20033;-73
2021/12/03 05:57:31;;;;;;;10.25;4.82;;;;;;;-0.16;94.54;98538.22;5033913;28;20029;-72
2021/12/03 05:59:56;;;;;;;8.93;4.63;;;;;;;-0.14;94.46;98536.25;5043705;28;20017;-80
2021/12/03 06:02:22;;;;;;;9.80;5.50;;;;;;;-0.17;93.42;98557.00;5031893;28;20032;-77
2021/12/03 06:04:47;;;;;;;10.43;5.13;;;;;;;-0.04;93.62;98569.00;5024964;28;20029;-75
2021/12/03 06:07:13;;;;;;;11.60;4.78;;;;;;;-0.30;93.89;98547.47;5023290;28;20101;-74
2021/12/03 06:09:38;;;;;;;9.82;5.30;;;;;;;-0.27;94.18;98568.47;5035789;28;20041;-75
2021/12/03 06:12:04;;;;;;;12.38;5.55;;;;;;;-0.40;94.30;98573.22;5036188;28;20029;-74
2021/12/03 06:14:30;;;;;;;10.30;5.40;;;;;;;-0.46;94.43;98571.97;5023730;28;20021;-76
2021/12/03 06:16:56;;;;;;;10.63;5.20;;;;;;;-0.45;95.87;98586.06;5020453;28;20036;-77
2021/12/03 06:19:23;;;;;;;9.90;5.00;;;;;;;-0.55;95.91;98586.09;5028692;28;20076;-74
2021/12/03 06:21:49;;;;;;;12.55;5.80;;;;;;;-0.56;95.78;98584.38;5010426;28;20017;-77
2021/12/03 06:24:14;;;;;;;12.20;5.57;;;;;;;-0.61;96.63;98591.09;5020142;28;20471;-74
2021/12/03 06:26:39;;;;;;;13.35;5.60;;;;;;;-0.76;96.91;98585.34;5017906;28;20045;-74
2021/12/03 06:29:04;;;;;;;11.52;5.40;;;;;;;-0.80;98.20;98595.41;5020371;28;20025;-76
2021/12/03 06:31:30;;;;;;;13.02;6.10;;;;;;;-0.89;98.40;98593.59;5034514;28;20029;-75
2021/12/03 06:33:55;;;;;;;12.90;6.05;;;;;;;-0.92;99.17;98588.50;5034495;28;20017;-76
2021/12/03 06:36:21;;;;;;;13.15;5.90;;;;;;;-0.87;99.13;98604.88;5017154;28;20091;-75
2021/12/03 06:38:46;;;;;;;11.05;5.70;;;;;;;-0.99;98.78;98566.16;5021622;28;20032;-73
2021/12/03 06:41:12;;;;;;;10.07;5.28;;;;;;;-0.91;98.47;98577.78;5036065;28;20033;-75
2021/12/03 06:43:38;;;;;;;9.57;5.88;;;;;;;-0.85;98.57;98594.13;5037204;28;20065;-75
2021/12/03 06:46:04;;;;;;;13.15;6.60;;;;;;;-0.96;98.87;98593.28;5018008;28;20048;-75
2021/12/03 06:48:29;;;;;;;14.30;5.82;;;;;;;-1.12;99.60;98585.81;5036911;28;20510;-74
2021/12/03 06:50:55;;;;;;;13.32;6.20;;;;;;;-1.16;99.33;98575.59;5033686;28;20083;-77
2021/12/03 06:53:23;;;;;;;12.77;6.88;;;;;;;-1.09;99.36;98602.47;5018859;28;20064;-72
2021/12/03 06:55:55;;;;;;;13.60;6.82;;;;;;;-1.29;99.47;98580.31;5018769;28;20422;-73
2021/12/03 06:58:21;;;;;;;11.15;5.85;;;;;;;-1.16;99.04;98613.59;5039424;28;20033;-74
2021/12/03 07:00:51;;;;;;;11.75;5.82;;;;;;;-1.02;98.48;98614.19;5027803;28;20437;-74
2021/12/03 07:03:18;;;;;;;11.50;4.95;;;;;;;-1.23;98.13;98598.34;5019546;28;20025;-73
2021/12/03 07:05:44;;;;;;;12.50;5.35;;;;;;;-1.23;98.13;98599.19;5029848;28;20503;-72
2021/12/03 07:08:09;;;;;;;13.38;4.90;;;;;;;-1.05;96.91;98622.44;5026991;28;20021;-77
2021/12/03 07:10:35;;;;;;;11.15;4.82;;;;;;;-1.04;96.86;98626.78;5004360;28;20507;-73
2021/12/03 07:13:01;;;;;;;13.55;5.35;;;;;;;-1.05;96.20;98631.25;5028875;28;20017;-74
2021/12/03 07:15:27;;;;;;;15.88;5.70;;;;;;;-1.06;96.60;98626.06;5040485;28;20061;-75
2021/12/03 07:17:52;;;;;;;11.32;5.93;;;;;;;-1.09;96.48;98632.50;5032449;28;20028;-75
2021/12/03 07:20:23;;;;;;;20.75;7.22;;;;;;;-0.98;96.19;98647.50;5034942;28;20061;-76
2021/12/03 07:22:49;;;;;;;15.75;7.10;;;;;;;-0.90;96.06;98651.16;5029269;28;20100;-77
2021/12/03 07:25:16;;;;;;;15.23;7.53;;;;;;;-0.82;95.91;98650.47;5008313;28;20024;-80
2021/12/03 07:27:41;;;;;;;20.08;6.90;;;;;;;-0.73;96.10;98652.34;5014060;28;20121;-80
2021/12/03 07:30:09;;;;;;;24.73;5.90;;;;;;;-0.90;96.38;98626.41;5012175;28;20111;-76
2021/12/03 07:32:35;;;;;;;10.27;5.90;;;;;;;-1.00;97.02;98621.06;5014985;28;20021;-73
2021/12/03 07:35:01;;;;;;;13.70;6.72;;;;;;;-0.89;97.47;98646.69;5015305;28;20082;-76
2021/12/03 07:37:26;;;;;;;15.60;5.93;;;;;;;-0.98;97.21;98643.00;5035192;28;20029;-74
2021/12/03 07:39:52;;;;;;;12.50;5.88;;;;;;;-0.88;96.48;98646.53;5056099;28;20116;-73
2021/12/03 07:42:17;;;;;;;12.52;5.93;;;;;;;-0.90;95.49;98647.66;5046098;28;20038;-73
2021/12/03 07:44:43;;;;;;;15.80;6.32;;;;;;;-0.74;95.25;98671.03;5048597;28;20097;-72
2021/12/03 07:47:09;;;;;;;11.80;6.07;;;;;;;-0.72;94.80;98661.97;5052616;28;20040;-75
2021/12/03 07:49:35;;;;;;;11.68;5.80;;;;;;;-0.60;94.62;98676.00;5056364;28;20023;-73
2021/12/03 07:52:01;;;;;;;10.50;5.15;;;;;;;-0.59;93.53;98668.88;5035407;28;20052;-74
2021/12/03 07:54:26;;;;;;;16.25;5.82;;;;;;;-0.55;93.21;98670.25;5012700;28;20515;-76
2021/12/03 07:56:52;;;;;;;10.27;5.20;;;;;;;-0.38;92.33;98676.75;5023873;28;20056;-76
2021/12/03 07:59:17;;;;;;;11.23;4.93;;;;;;;-0.39;91.70;98675.91;5027615;28;20435;-77
2021/12/03 08:01:44;;;;;;;9.48;5.13;;;;;;;-0.39;90.79;98681.22;5028171;28;20037;-78
2021/12/03 08:04:11;;;;;;;9.73;5.03;;;;;;;-0.28;90.36;98678.44;5007288;28;20368;-77
2021/12/03 08:06:40;;;;;;;8.43;4.38;;;;;;;-0.26;89.42;98654.38;5022561;28;20037;-77
2021/12/03 08:09:09;;;;;;;7.15;4.20;;;;;;;-0.17;88.00;98677.47;5022830;28;20396;-78
2021/12/03 08:11:37;;;;;;;7.68;4.22;;;;;;;-0.08;87.96;98687.28;5010878;28;20033;-78
2021/12/03 08:14:02;;;;;;;7.45;4.18;;;;;;;-0.13;87.17;98680.69;5008729;28;20042;-75
2021/12/03 08:16:28;;;;;;;6.90;3.92;;;;;;;-0.16;86.61;98667.66;5024101;28;20053;-74
2021/12/03 08:18:54;;;;;;;10.43;4.63;;;;;;;-0.08;86.59;98670.47;5033721;28;20372;-78
2021/12/03 08:21:19;;;;;;;10.48;4.72;;;;;;;-0.04;87.18;98661.25;5020060;28;20026;-74
2021/12/03 08:23:47;;;;;;;7.78;4.45;;;;;;;-0.07;87.34;98666.84;5030269;28;20032;-75
2021/12/03 08:26:13;;;;;;;9.43;4.65;;;;;;;0.02;85.98;98658.00;5032609;28;20021;-77
2021/12/03 08:28:38;;;;;;;7.75;4.25;;;;;;;0.26;84.34;98678.88;5005992;28;20029;-81
2021/12/03 08:31:03;;;;;;;9.85;4.18;;;;;;;0.27;84.39;98687.72;5020654;28;20018;-75
2021/12/03 08:33:30;;;;;;;12.60;5.25;;;;;;;0.24;84.54;98683.50;5020960;28;20025;-77
2021/12/03 08:35:55;;;;;;;9.10;4.03;;;;;;;0.29;84.45;98675.09;5022873;28;20505;-76
2021/12/03 08:38:20;;;;;;;9.02;4.43;;;;;;;0.40;83.79;98693.59;5020818;28;20025;-74
2021/12/03 08:40:46;;;;;;;12.15;4.40;;;;;;;0.30;83.57;98664.31;5031463;28;20033;-73
2021/12/03 08:43:11;;;;;;;10.18;4.10;;;;;;;0.73;82.33;98699.41;5033952;28;20029;-78
2021/12/03 08:45:43;;;;;;;14.70;4.25;;;;;;;0.75;81.89;98676.13;5017395;28;20482;-79
2021/12/03 08:48:08;;;;;;;8.75;3.20;;;;;;;0.79;82.33;98685.53;5035129;28;20029;-77
2021/12/03 08:50:37;;;;;;;6.18;3.00;;;;;;;0.92;80.37;98686.06;5052731;28;20029;-79
2021/12/03 08:54:48;;;;;;;6.93;3.33;;;;;;;1.05;79.82;98683.06;5047396;28;20014;-77
2021/12/03 08:56:02;;;;;;;6.32;2.28;;;;;;;1.22;77.00;98694.78;5051420;28;20033;-74
2021/12/03 08:58:27;;;;;;;4.43;2.50;;;;;;;1.78;74.79;98671.59;5040128;28;20022;-77
2021/12/03 09:00:53;;;;;;;7.70;2.75;;;;;;;4.28;68.84;98697.44;5054437;28;20044;-77
2021/12/03 09:03:18;;;;;;;5.60;2.05;;;;;;;4.73;63.23;98666.63;5051273;28;20036;-75
2021/12/03 09:05:46;;;;;;;3.72;1.67;;;;;;;5.55;59.95;98698.59;5035341;28;20026;-72
2021/12/03 09:08:12;;;;;;;3.95;2.25;;;;;;;5.96;58.69;98689.53;5029181;28;20029;-73
2021/12/03 09:10:38;;;;;;;2.42;1.73;;;;;;;6.92;56.03;98696.22;5032642;28;20059;-74
2021/12/03 09:13:04;;;;;;;8.00;1.58;;;;;;;8.07;53.00;98688.47;5046745;28;20033;-73
2021/12/03 09:15:38;;;;;;;2.00;1.20;;;;;;;9.30;48.60;98674.81;5048917;28;20044;-73
2021/12/03 09:18:20;;;;;;;5.35;1.58;;;;;;;10.49;45.36;98674.47;5040041;28;20028;-74
2021/12/03 09:23:22;;;;;;;7.22;2.00;;;;;;;10.96;42.47;98676.16;5018756;28;20026;-75
2021/12/03 09:25:53;;;;;;;2.35;1.52;;;;;;;9.38;45.99;98688.19;5030218;28;20029;-71
2021/12/03 09:28:20;;;;;;;3.03;1.20;;;;;;;8.37;47.71;98679.44;5035133;28;20372;-74
2021/12/03 09:30:47;;;;;;;3.42;1.45;;;;;;;7.33;49.91;98671.56;5034703;28;20024;-77
2021/12/03 09:33:16;;;;;;;3.63;1.40;;;;;;;7.16;51.91;98685.22;5027277;28;20022;-72
2021/12/03 09:35:46;;;;;;;3.95;1.27;;;;;;;6.06;55.14;98688.31;5034257;28;20036;-72
2021/12/03 09:38:12;;;;;;;7.95;1.30;;;;;;;5.43;56.02;98690.09;5034098;28;20021;-74
2021/12/03 09:40:39;;;;;;;1.75;1.10;;;;;;;5.80;55.06;98685.91;5032698;28;20068;-76
2021/12/03 09:43:06;;;;;;;4.40;1.00;;;;;;;4.25;57.91;98651.41;5018129;28;20551;-74
2021/12/03 09:45:32;;;;;;;3.78;1.13;;;;;;;3.71;61.16;98691.97;5039109;28;20018;-79
2021/12/03 09:47:59;;;;;;;1.77;1.08;;;;;;;3.73;62.26;98685.44;5019056;28;20075;-77
2021/12/03 09:50:24;;;;;;;4.72;1.10;;;;;;;3.60;62.01;98661.00;5028378;28;20360;-72
2021/12/03 09:53:19;;;;;;;1.92;0.90;;;;;;;3.64;62.64;98658.81;5027473;28;20072;-77
2021/12/03 09:55:45;;;;;;;3.55;0.90;;;;;;;3.47;62.46;98657.94;5033086;28;20028;-74
2021/12/03 09:58:30;;;;;;;4.43;1.13;;;;;;;3.60;62.07;98650.28;5043998;28;20048;-78
2021/12/03 10:01:06;;;;;;;3.38;0.90;;;;;;;3.42;61.85;98641.53;5043389;28;20085;-76
2021/12/03 10:03:42;;;;;;;3.00;0.70;;;;;;;3.27;62.50;98655.53;5026794;28;20083;-76
2021/12/03 10:14:44;;;;;;;2.88;1.00;;;;;;;6.36;56.56;98651.66;5042422;28;20033;-74
2021/12/03 10:34:05;;;;;;;7.15;1.92;;;;;;;4.06;62.21;98655.22;5039966;28;20036;-75
2021/12/03 10:38:38;;;;;;;4.13;1.70;;;;;;;3.69;61.84;98662.72;5378419;23;20045;-72
2021/12/03 10:43:55;;;;;;;4.72;1.65;;;;;;;3.79;60.26;98642.97;5032188;28;20026;-76
2021/12/03 11:06:00;;;;;;;5.70;1.50;;;;;;;3.19;63.62;98620.72;5031454;28;20040;-72
2021/12/03 11:11:30;;;;;;;3.63;1.67;;;;;;;3.46;62.56;98587.56;5031330;28;20028;-72
2021/12/03 11:31:01;;;;;;;2.83;1.38;;;;;;;7.33;51.54;98520.88;5029143;28;20094;-72
2021/12/03 11:56:55;;;;;;;7.95;2.17;;;;;;;5.68;56.72;98542.34;5152164;27;20417;-75
2021/12/03 12:35:55;;;;;;;3.75;2.17;;;;;;;4.90;59.24;98506.63;5149974;27;20029;-72
2021/12/03 12:42:00;;;;;;;3.87;2.13;;;;;;;4.78;60.21;98482.03;5149319;27;20027;-82
2021/12/03 13:28:22;;;;;;;3.90;1.77;;;;;;;5.01;60.53;98479.41;5121884;27;20084;-68
2021/12/03 13:43:40;;;;;;;3.47;2.00;;;;;;;4.05;62.61;98444.75;5113434;27;20033;-73
2021/12/03 14:00:47;;;;;;;10.75;2.15;;;;;;;3.05;66.38;98431.59;5115360;27;20102;-73
2021/12/03 14:27:31;;;;;;;2.42;1.20;;;;;;;2.62;67.62;98410.28;5117687;27;20030;-72
2021/12/03 14:52:13;;;;;;;3.22;1.25;;;;;;;2.31;68.03;98411.84;5131607;27;20049;-73
2021/12/03 14:57:16;;;;;;;2.20;1.42;;;;;;;2.35;68.27;98432.69;5112084;28;20023;-72
2021/12/03 15:00:16;;;;;;;3.58;1.60;;;;;;;2.30;69.17;98429.66;5129413;27;20020;-72
2021/12/03 15:03:02;;;;;;;3.55;1.77;;;;;;;2.27;68.54;98430.00;5115846;27;20088;-73
2021/12/03 15:08:21;;;;;;;3.65;2.20;;;;;;;2.05;69.40;98417.22;5111366;28;20028;-72
2021/12/03 15:31:55;;;;;;;9.88;2.63;;;;;;;1.36;73.99;98410.91;5130870;27;20077;-73
2021/12/03 15:34:41;;;;;;;4.35;2.15;;;;;;;1.33;73.15;98409.41;5123920;27;20054;-73
2021/12/03 15:37:24;;;;;;;4.40;1.90;;;;;;;1.53;71.90;98418.06;5111081;28;20024;-73
2021/12/03 16:04:41;;;;;;;3.83;1.33;;;;;;;0.81;74.21;98361.31;5144512;28;20041;-74
2021/12/03 16:20:29;;;;;;;6.43;2.55;;;;;;;0.79;75.82;98381.97;5138528;28;20014;-77
2021/12/03 16:47:14;;;;;;;6.63;3.50;;;;;;;0.17;79.75;98337.41;5126758;27;20039;-75
2021/12/03 16:50:04;;;;;;;8.43;3.58;;;;;;;0.25;80.09;98359.75;5125738;27;20503;-75
2021/12/03 16:52:30;;;;;;;12.68;5.35;;;;;;;0.22;80.81;98355.56;5142106;27;20504;-74
2021/12/03 16:54:56;;;;;;;13.18;5.07;;;;;;;0.12;80.62;98329.03;5120332;27;20042;-74
2021/12/03 16:57:28;;;;;;;11.32;4.55;;;;;;;0.25;80.84;98341.97;5121998;27;20411;-76
2021/12/03 16:59:55;;;;;;;12.35;5.45;;;;;;;0.41;80.20;98347.47;5122765;27;20404;-75
2021/12/03 17:02:28;;;;;;;17.85;5.78;;;;;;;0.41;80.23;98339.47;5131665;27;20072;-75
2021/12/03 17:08:10;;;;;;;9.75;4.63;;;;;;;0.57;79.12;98352.13;5130624;27;20047;-74
2021/12/03 17:10:35;;;;;;;11.10;4.22;;;;;;;0.69;78.39;98347.41;5120256;27;20047;-74
2021/12/03 17:16:03;;;;;;;9.65;4.95;;;;;;;0.87;77.89;98350.09;5129650;27;20091;-73
2021/12/03 17:19:03;;;;;;;11.23;3.97;;;;;;;0.69;77.66;98294.19;5123166;27;20103;-73
2021/12/03 17:56:11;;;;;;;11.70;5.68;;;;;;;1.23;77.09;98286.06;5129570;27;20054;-72
2021/12/03 17:59:21;;;;;;;9.60;5.15;;;;;;;1.21;76.82;98277.44;5121835;27;20027;-73